createdAt,value
2023-03-31T00:02:18.785Z,100320.00
2023-03-31T00:04:45.509Z,100317.00
2023-03-31T00:07:14.304Z,100313.59
2023-03-31T00:09:40.832Z,100298.78
2023-03-31T00:12:08.072Z,100319.41
2023-03-31T00:14:34.709Z,100311.00
2023-03-31T00:17:01.745Z,100326.66
2023-03-31T00:19:28.391Z,100342.06
2023-03-31T00:21:54.841Z,100352.28
2023-03-31T00:24:21.561Z,100360.72
2023-03-31T00:26:48.239Z,100362.94
2023-03-31T00:29:14.936Z,100372.75
2023-03-31T00:31:41.699Z,100382.75
2023-03-31T00:34:08.445Z,100401.00
2023-03-31T00:36:35.608Z,100418.06
2023-03-31T00:39:05.805Z,100418.88
2023-03-31T00:41:32.928Z,100432.28
2023-03-31T00:44:05.358Z,100437.09
2023-03-31T00:46:36.950Z,100443.09
2023-03-31T00:49:05.559Z,100428.28
2023-03-31T00:51:34.449Z,100429.25
2023-03-31T00:54:06.133Z,100440.91
2023-03-31T00:56:37.769Z,100432.03
2023-03-31T00:59:08.795Z,100397.34
2023-03-31T01:04:43.476Z,100401.88
2023-03-31T01:07:20.245Z,100390.41
2023-03-31T01:09:48.397Z,100370.56
2023-03-31T01:12:18.507Z,100368.56
2023-03-31T01:14:45.244Z,100313.75
2023-03-31T01:17:12.190Z,100369.78
2023-03-31T01:19:51.336Z,100366.59
2023-03-31T01:22:32.879Z,100383.91
2023-03-31T01:25:05.491Z,100401.19
2023-03-31T01:27:51.182Z,100436.50
2023-03-31T01:30:43.177Z,100456.59
2023-03-31T01:33:48.351Z,100482.34
2023-03-31T01:36:52.497Z,100513.22
2023-03-31T01:39:25.145Z,100524.44
2023-03-31T01:42:01.692Z,100539.75
2023-03-31T01:44:45.749Z,100541.31
2023-03-31T01:47:34.741Z,100512.66
2023-03-31T01:50:08.407Z,100512.28
2023-03-31T01:52:49.835Z,100528.13
2023-03-31T01:55:21.081Z,100445.66
2023-03-31T01:58:00.617Z,100390.50
2023-03-31T02:00:34.406Z,100394.72
2023-03-31T02:03:08.523Z,100373.28
2023-03-31T02:05:44.252Z,100347.25
2023-03-31T02:08:20.317Z,100350.41
2023-03-31T02:10:48.182Z,100301.09
2023-03-31T02:13:17.439Z,100233.47
2023-03-31T02:15:48.225Z,100193.00
2023-03-31T02:18:18.500Z,100187.19
2023-03-31T02:20:49.275Z,100153.03
2023-03-31T02:23:19.879Z,100140.88
2023-03-31T02:25:53.093Z,100130.09
2023-03-31T02:28:24.847Z,100102.78
2023-03-31T02:31:04.417Z,100104.31
2023-03-31T02:33:31.232Z,100206.56
2023-03-31T02:35:59.529Z,100273.34
2023-03-31T02:38:26.677Z,100270.97
2023-03-31T02:40:53.880Z,100219.88
2023-03-31T02:43:21.261Z,100553.31
2023-03-31T02:45:51.805Z,100566.97
2023-03-31T02:48:32.684Z,100381.31
2023-03-31T02:51:08.384Z,100172.19
2023-03-31T02:53:40.812Z,100391.34
2023-03-31T02:56:29.366Z,100498.63
2023-03-31T02:59:14.560Z,100496.63
2023-03-31T03:01:49.341Z,100468.78
2023-03-31T03:04:45.260Z,100493.03
2023-03-31T03:07:36.436Z,100295.19
2023-03-31T03:10:15.105Z,100283.13
2023-03-31T03:12:47.889Z,100328.44
2023-03-31T03:15:22.556Z,100330.25
2023-03-31T03:17:50.039Z,100146.41
2023-03-31T03:20:20.187Z,100190.97
2023-03-31T03:22:46.751Z,100288.44
2023-03-31T03:25:15.148Z,100334.06
2023-03-31T03:27:41.645Z,100305.97
2023-03-31T03:30:11.536Z,100276.44
2023-03-31T03:32:38.222Z,100225.34
2023-03-31T03:35:06.160Z,100136.88
2023-03-31T03:37:32.890Z,100098.78
2023-03-31T03:39:59.377Z,100045.91
2023-03-31T03:42:26.956Z,100002.78
2023-03-31T03:44:53.548Z,100015.81
2023-03-31T03:47:19.984Z,100063.78
2023-03-31T03:49:46.506Z,100037.03
2023-03-31T03:52:13.138Z,99951.00
2023-03-31T03:54:39.681Z,99991.41
2023-03-31T03:57:06.536Z,99965.13
2023-03-31T03:59:33.413Z,99790.50
2023-03-31T04:02:00.117Z,99791.97
2023-03-31T04:04:26.766Z,99789.25
2023-03-31T04:06:53.287Z,99768.72
2023-03-31T04:09:19.915Z,99780.19
2023-03-31T04:11:46.634Z,99764.56
2023-03-31T04:14:13.174Z,99739.38
2023-03-31T04:16:39.807Z,99685.91
2023-03-31T04:19:06.639Z,99801.03
2023-03-31T04:21:33.391Z,99789.00
2023-03-31T04:24:00.088Z,99803.16
2023-03-31T04:26:29.249Z,99818.34
2023-03-31T04:28:55.662Z,99808.94
2023-03-31T04:31:22.217Z,99834.44
2023-03-31T04:33:48.743Z,99869.19
2023-03-31T04:36:15.201Z,99881.09
2023-03-31T04:38:41.719Z,99869.88
2023-03-31T04:41:08.408Z,99907.38
2023-03-31T04:43:35.091Z,99918.81
2023-03-31T04:46:01.691Z,99885.38
2023-03-31T04:48:28.251Z,99893.91
2023-03-31T04:50:54.910Z,99979.00
2023-03-31T04:53:21.424Z,99969.75
2023-03-31T04:55:49.657Z,99974.00
2023-03-31T04:58:16.726Z,99967.16
2023-03-31T05:00:43.656Z,100004.50
2023-03-31T05:03:10.632Z,100019.31
2023-03-31T05:05:37.553Z,99961.06
2023-03-31T05:08:04.572Z,99924.22
2023-03-31T05:10:31.649Z,99911.56
2023-03-31T05:12:58.762Z,99926.41
2023-03-31T05:15:25.570Z,99822.22
2023-03-31T05:17:52.790Z,99740.81
2023-03-31T05:20:20.694Z,99702.19
2023-03-31T05:22:47.514Z,99641.69
2023-03-31T05:25:15.061Z,99548.63
2023-03-31T05:27:41.642Z,99633.09
2023-03-31T05:30:08.752Z,99612.72
2023-03-31T05:32:35.614Z,99612.13
2023-03-31T05:35:02.359Z,99604.41
2023-03-31T05:37:29.055Z,99631.03
2023-03-31T05:39:55.755Z,99642.69
2023-03-31T05:42:22.380Z,99684.56
2023-03-31T05:44:49.209Z,99684.22
2023-03-31T05:47:16.355Z,99727.69
2023-03-31T05:49:43.228Z,99776.28
2023-03-31T05:52:10.822Z,99812.53
2023-03-31T05:54:37.720Z,99849.50
2023-03-31T05:57:04.542Z,99817.66
2023-03-31T05:59:31.033Z,99877.34
2023-03-31T06:01:57.867Z,99918.06
2023-03-31T06:04:24.680Z,99958.81
2023-03-31T06:06:51.475Z,99951.25
2023-03-31T06:09:18.128Z,100048.56
2023-03-31T06:11:44.933Z,100291.59
2023-03-31T06:14:12.261Z,100421.38
2023-03-31T06:16:38.978Z,100454.84
2023-03-31T06:19:05.611Z,100512.31
2023-03-31T06:21:32.567Z,100522.53
2023-03-31T06:23:59.207Z,100546.00
2023-03-31T06:26:26.578Z,100460.63
2023-03-31T06:28:53.682Z,100434.13
2023-03-31T06:31:22.785Z,100375.75
2023-03-31T06:33:49.870Z,100366.25
2023-03-31T06:36:19.488Z,100361.44
2023-03-31T06:38:46.328Z,100297.97
2023-03-31T06:41:14.853Z,100619.53
2023-03-31T06:43:43.765Z,100499.09
2023-03-31T06:46:11.144Z,100656.03
2023-03-31T06:48:38.068Z,100626.75
2023-03-31T06:51:07.410Z,100523.91
2023-03-31T06:53:35.173Z,100330.09
2023-03-31T06:56:01.996Z,100167.13
2023-03-31T06:58:31.334Z,100093.81
2023-03-31T07:00:58.628Z,99996.06
2023-03-31T07:03:25.568Z,99982.25
2023-03-31T07:05:53.803Z,99968.84
2023-03-31T07:08:20.493Z,99899.56
2023-03-31T07:10:48.469Z,99837.44
2023-03-31T07:13:18.294Z,99729.81
2023-03-31T07:15:47.746Z,99731.53
2023-03-31T07:18:15.140Z,99716.66
2023-03-31T07:20:42.310Z,99685.28
2023-03-31T07:23:09.398Z,99723.50
2023-03-31T07:25:36.837Z,99681.41
2023-03-31T07:28:04.787Z,99670.09
2023-03-31T07:30:31.588Z,99732.31
2023-03-31T07:32:58.997Z,99704.88
2023-03-31T07:35:25.809Z,99699.31
2023-03-31T07:37:52.547Z,99674.03
2023-03-31T07:40:25.696Z,99657.84
2023-03-31T07:42:53.237Z,99691.59
2023-03-31T07:45:22.449Z,99680.25
2023-03-31T07:47:49.493Z,99620.63
2023-03-31T07:50:17.364Z,99618.88
2023-03-31T07:52:46.920Z,99588.28
2023-03-31T07:55:13.930Z,99551.72
2023-03-31T07:57:40.597Z,99534.53
2023-03-31T08:00:08.829Z,99487.09
2023-03-31T08:02:35.774Z,99441.47
2023-03-31T08:05:02.560Z,99381.28
2023-03-31T08:07:29.079Z,99393.38
2023-03-31T08:09:55.637Z,99386.72
2023-03-31T08:12:22.058Z,99388.38
2023-03-31T08:14:48.892Z,99290.63
2023-03-31T08:17:15.566Z,99271.66
2023-03-31T08:19:42.261Z,99217.47
2023-03-31T08:22:08.927Z,99201.53
2023-03-31T08:24:35.460Z,99155.66
2023-03-31T08:27:01.938Z,99122.31
2023-03-31T08:29:28.616Z,99154.19
2023-03-31T08:31:55.216Z,99098.63
2023-03-31T08:34:21.960Z,99030.19
2023-03-31T08:36:48.593Z,99031.78
2023-03-31T08:39:15.080Z,99012.97
2023-03-31T08:41:52.094Z,98991.53
2023-03-31T08:44:42.844Z,98967.63
2023-03-31T08:47:15.959Z,98984.81
2023-03-31T08:49:48.132Z,98980.66
2023-03-31T08:52:24.769Z,98965.22
2023-03-31T08:55:01.756Z,98977.50
2023-03-31T08:57:59.745Z,98993.75
2023-03-31T09:00:26.490Z,98985.13
2023-03-31T09:03:04.333Z,98978.03
2023-03-31T09:05:43.408Z,98331.31
2023-03-31T09:08:38.618Z,98217.16
2023-03-31T09:11:20.132Z,98270.56
2023-03-31T09:13:56.134Z,98361.38
2023-03-31T09:16:48.227Z,98480.19
2023-03-31T09:19:24.220Z,98551.78
2023-03-31T09:21:53.380Z,98644.69
2023-03-31T09:24:28.670Z,98707.00
2023-03-31T09:27:00.968Z,98725.03
2023-03-31T09:29:37.522Z,98746.22
2023-03-31T09:32:33.658Z,98762.19
2023-03-31T09:35:12.674Z,98695.25
2023-03-31T09:37:40.839Z,98728.97
2023-03-31T09:40:08.397Z,98736.56
2023-03-31T09:42:36.676Z,98737.06
2023-03-31T09:45:04.098Z,98737.59
2023-03-31T09:47:39.431Z,98775.78
2023-03-31T09:50:07.637Z,98774.47
2023-03-31T09:52:43.387Z,98775.25
2023-03-31T09:55:38.241Z,98730.28
2023-03-31T09:58:08.470Z,98772.88
2023-03-31T10:00:36.176Z,98745.16
2023-03-31T10:03:05.128Z,98800.63
2023-03-31T10:05:36.035Z,98758.72
2023-03-31T10:08:13.999Z,98796.41
2023-03-31T10:10:55.029Z,98789.34
2023-03-31T10:13:34.934Z,98785.69
2023-03-31T10:16:04.912Z,98778.38
2023-03-31T10:18:35.675Z,98782.84
2023-03-31T10:21:05.936Z,98777.31
2023-03-31T10:23:35.428Z,98776.28
2023-03-31T10:26:03.813Z,98736.53
2023-03-31T10:28:35.310Z,98743.59
2023-03-31T10:31:02.897Z,98760.31
2023-03-31T10:33:34.405Z,98766.81
2023-03-31T10:36:07.370Z,98745.31
2023-03-31T10:38:38.002Z,98716.56
2023-03-31T10:41:05.203Z,98702.19
2023-03-31T10:43:52.819Z,98695.66
2023-03-31T10:46:20.554Z,98643.72
2023-03-31T10:48:47.440Z,98676.91
2023-03-31T10:51:27.845Z,98630.22
2023-03-31T10:54:00.461Z,98631.00
2023-03-31T10:56:36.469Z,98573.28
2023-03-31T10:59:06.555Z,98623.16
2023-03-31T11:01:58.948Z,98628.34
2023-03-31T11:04:35.701Z,98639.81
2023-03-31T11:07:40.932Z,98658.41
2023-03-31T11:10:22.067Z,98663.38
2023-03-31T11:12:54.420Z,98684.03
2023-03-31T11:15:29.611Z,98631.50
2023-03-31T11:18:11.528Z,98682.97
2023-03-31T11:21:38.505Z,98674.63
2023-03-31T11:24:10.940Z,98674.59
2023-03-31T11:26:52.415Z,98650.53
2023-03-31T11:29:37.326Z,98659.38
2023-03-31T11:32:32.041Z,98667.22
2023-03-31T11:35:05.170Z,98630.91
2023-03-31T11:38:15.180Z,98591.50
2023-03-31T11:40:57.536Z,98637.22
2023-03-31T11:43:39.734Z,98627.56
2023-03-31T11:46:09.299Z,98579.25
2023-03-31T11:48:53.212Z,98604.88
2023-03-31T11:51:28.131Z,98600.69
2023-03-31T11:53:58.649Z,98556.25
2023-03-31T11:56:35.653Z,98482.94
2023-03-31T11:59:04.039Z,98419.84
2023-03-31T12:01:49.038Z,98400.41
2023-03-31T12:04:23.209Z,98346.84
2023-03-31T12:06:50.842Z,98412.09
2023-03-31T12:09:27.710Z,98412.41
2023-03-31T12:12:20.819Z,98442.47
2023-03-31T12:14:54.562Z,98411.22
2023-03-31T12:17:27.051Z,98469.13
2023-03-31T12:19:57.312Z,98444.09
2023-03-31T12:22:36.225Z,98479.59
2023-03-31T12:25:02.926Z,98481.66
2023-03-31T12:27:35.290Z,98478.53
2023-03-31T12:30:07.406Z,98413.81
2023-03-31T12:32:40.724Z,98435.47
2023-03-31T12:35:25.262Z,98413.25
2023-03-31T12:37:58.131Z,98402.53
2023-03-31T12:40:55.389Z,98346.75
2023-03-31T12:44:06.370Z,98377.72
2023-03-31T12:46:47.858Z,98386.34
2023-03-31T12:49:42.843Z,98380.81
2023-03-31T12:52:17.311Z,98392.38
2023-03-31T12:55:18.083Z,98409.34
2023-03-31T12:57:44.606Z,98414.31
2023-03-31T13:01:00.696Z,98433.63
2023-03-31T13:03:46.769Z,98433.09
2023-03-31T13:06:33.756Z,98459.13
2023-03-31T13:09:12.428Z,98472.25
2023-03-31T13:11:42.098Z,98468.53
2023-03-31T13:14:42.792Z,98508.00
2023-03-31T13:17:38.699Z,98523.94
2023-03-31T13:20:26.806Z,98535.94
2023-03-31T13:23:20.747Z,98558.91
2023-03-31T13:25:55.545Z,98568.28
2023-03-31T13:28:22.189Z,98578.72
2023-03-31T13:30:51.000Z,98599.06
2023-03-31T13:33:23.290Z,98540.78
2023-03-31T13:36:08.936Z,98594.66
2023-03-31T13:38:58.081Z,98596.00
2023-03-31T13:41:43.732Z,98603.28
2023-03-31T13:44:25.321Z,98598.06
2023-03-31T13:47:13.418Z,98611.66
2023-03-31T13:50:17.706Z,98630.41
2023-03-31T13:53:21.827Z,98639.03
2023-03-31T13:56:21.775Z,98637.38
2023-03-31T13:59:17.322Z,98645.00
2023-03-31T14:02:11.684Z,98666.00
2023-03-31T14:05:20.671Z,98656.59
2023-03-31T14:07:53.085Z,98658.47
2023-03-31T14:10:29.289Z,98648.56
2023-03-31T14:13:05.883Z,98642.34
2023-03-31T14:15:33.976Z,98638.94
2023-03-31T14:18:00.768Z,98626.19
2023-03-31T14:20:41.401Z,98646.78
2023-03-31T14:23:12.360Z,98603.91
2023-03-31T14:25:48.919Z,98636.13
2023-03-31T14:28:18.318Z,98629.13
2023-03-31T14:31:01.501Z,98653.09
2023-03-31T14:33:40.081Z,98622.31
2023-03-31T14:36:31.322Z,98642.09
2023-03-31T14:39:04.301Z,98609.31
2023-03-31T14:41:31.168Z,98653.25
2023-03-31T14:44:01.923Z,98647.44
2023-03-31T14:46:32.312Z,98649.25
2023-03-31T14:48:59.191Z,98637.72
2023-03-31T14:51:29.665Z,98626.41
2023-03-31T14:54:01.109Z,98622.09
2023-03-31T14:56:33.884Z,98578.69
2023-03-31T14:59:02.012Z,98619.72
2023-03-31T15:01:31.927Z,98611.19
2023-03-31T15:03:58.502Z,98611.69
2023-03-31T15:06:26.321Z,98603.84
2023-03-31T15:08:57.955Z,98595.50
2023-03-31T15:11:24.642Z,98544.06
2023-03-31T15:14:04.207Z,98587.97
2023-03-31T15:16:39.095Z,98571.81
2023-03-31T15:19:15.217Z,98566.56
2023-03-31T15:21:42.646Z,98564.19
2023-03-31T15:24:13.491Z,98557.16
2023-03-31T15:26:56.230Z,98548.56
2023-03-31T15:29:44.120Z,98550.06
2023-03-31T15:32:30.817Z,98541.47
2023-03-31T15:37:46.442Z,98462.22
2023-03-31T15:40:19.500Z,98429.66
2023-03-31T15:43:01.466Z,98382.75
2023-03-31T15:45:55.613Z,98340.78
2023-03-31T15:48:32.870Z,98313.41
2023-03-31T15:51:01.403Z,98298.31
2023-03-31T15:53:32.052Z,98288.66
2023-03-31T15:55:59.914Z,98278.25
2023-03-31T15:58:54.081Z,98264.16
2023-03-31T16:01:21.991Z,98256.63
2023-03-31T16:03:51.933Z,98218.56
2023-03-31T16:06:18.343Z,98236.56
2023-03-31T16:08:53.416Z,98221.97
2023-03-31T16:11:25.779Z,98173.53
2023-03-31T16:13:56.626Z,98125.84
2023-03-31T16:16:25.701Z,98058.94
2023-03-31T16:19:05.840Z,97988.88
2023-03-31T16:21:49.476Z,97919.06
2023-03-31T16:24:16.838Z,97790.25
2023-03-31T16:26:43.710Z,97703.56
2023-03-31T16:29:19.688Z,97607.25
2023-03-31T16:31:46.432Z,97540.97
2023-03-31T16:34:13.161Z,97462.94
2023-03-31T16:36:40.019Z,97346.31
2023-03-31T16:39:07.031Z,97250.91
2023-03-31T16:41:35.834Z,97171.63
2023-03-31T16:44:03.246Z,97069.31
2023-03-31T16:46:29.867Z,96957.47
2023-03-31T16:48:59.252Z,96879.09
2023-03-31T16:51:26.017Z,96755.41
2023-03-31T16:53:52.578Z,96712.88
2023-03-31T16:56:19.322Z,96641.22
2023-03-31T16:58:46.047Z,96585.78
2023-03-31T17:01:12.915Z,96484.13
2023-03-31T17:03:39.535Z,96441.69
2023-03-31T17:06:11.670Z,96373.84
2023-03-31T17:08:38.759Z,96259.16
2023-03-31T17:11:07.024Z,96231.13
2023-03-31T17:13:34.080Z,96111.00
2023-03-31T17:16:08.646Z,96105.59
2023-03-31T17:18:44.569Z,96104.63
2023-03-31T17:21:14.086Z,96054.78
2023-03-31T17:23:41.243Z,96060.88
2023-03-31T17:26:08.965Z,96050.03
2023-03-31T17:28:35.988Z,96036.63
2023-03-31T17:31:02.723Z,96022.66
2023-03-31T17:33:29.207Z,96052.19
2023-03-31T17:35:57.451Z,95961.81
2023-03-31T17:38:25.329Z,96023.25
2023-03-31T17:40:52.243Z,95936.06
2023-03-31T17:43:18.932Z,95957.13
2023-03-31T17:45:45.691Z,95808.84
2023-03-31T17:48:12.433Z,95795.56
2023-03-31T17:50:39.309Z,95801.72
2023-03-31T17:53:06.060Z,95849.19
2023-03-31T17:55:32.783Z,95788.59
2023-03-31T17:57:59.358Z,95787.72
2023-03-31T18:00:25.858Z,95789.22
2023-03-31T18:02:52.472Z,95785.69
2023-03-31T18:05:19.284Z,95824.81
2023-03-31T18:07:45.970Z,95835.53
2023-03-31T18:10:12.534Z,95796.97
2023-03-31T18:12:39.346Z,95807.63
2023-03-31T18:15:06.441Z,95783.22
2023-03-31T18:17:33.529Z,95786.69
2023-03-31T18:20:00.116Z,95748.09
2023-03-31T18:22:26.638Z,95716.56
2023-03-31T18:24:53.296Z,95718.84
2023-03-31T18:27:20.043Z,95738.00
2023-03-31T18:29:46.751Z,95620.50
2023-03-31T18:32:13.474Z,95671.91
2023-03-31T18:34:40.232Z,95632.72
2023-03-31T18:37:06.843Z,95675.25
2023-03-31T18:39:33.863Z,95632.28
2023-03-31T18:42:00.343Z,95600.34
2023-03-31T18:44:27.113Z,95590.69
2023-03-31T18:46:53.857Z,95559.16
2023-03-31T18:49:20.478Z,95554.94
2023-03-31T18:51:47.110Z,95491.50
2023-03-31T18:54:13.708Z,95476.66
2023-03-31T18:56:40.409Z,95473.28
2023-03-31T18:59:07.106Z,95439.69
2023-03-31T19:01:34.570Z,95452.78
2023-03-31T19:04:01.175Z,95373.75
2023-03-31T19:06:27.912Z,95413.88
2023-03-31T19:08:56.835Z,95433.09
2023-03-31T19:11:23.353Z,95433.84
2023-03-31T19:13:50.140Z,95496.91
2023-03-31T19:16:16.681Z,95554.94
2023-03-31T19:18:43.212Z,95571.50
2023-03-31T19:21:10.413Z,95583.44
2023-03-31T19:23:37.119Z,95605.44
2023-03-31T19:26:03.749Z,95685.97
2023-03-31T19:28:30.673Z,95615.84
2023-03-31T19:30:58.525Z,95579.97
2023-03-31T19:33:26.416Z,95578.47
2023-03-31T19:35:53.189Z,95506.75
2023-03-31T19:38:20.046Z,95579.44
2023-03-31T19:40:46.701Z,95615.41
2023-03-31T19:43:21.549Z,95612.81
2023-03-31T19:45:49.213Z,95654.31
2023-03-31T19:48:16.499Z,95653.22
2023-03-31T19:50:49.686Z,95615.25
2023-03-31T19:53:16.225Z,95725.66
2023-03-31T19:55:43.137Z,95770.19
2023-03-31T19:58:09.886Z,95750.56
2023-03-31T20:00:37.227Z,95706.97
2023-03-31T20:03:04.216Z,95730.09
2023-03-31T20:05:34.206Z,95701.94
2023-03-31T20:08:00.796Z,95668.41
2023-03-31T20:10:27.302Z,95648.91
2023-03-31T20:12:53.980Z,95681.00
2023-03-31T20:15:20.547Z,95896.16
2023-03-31T20:17:47.415Z,95926.59
2023-03-31T20:20:14.067Z,95922.53
2023-03-31T20:22:40.656Z,95866.91
2023-03-31T20:25:07.856Z,95780.72
2023-03-31T20:27:34.372Z,95723.06
2023-03-31T20:30:01.312Z,95624.41
2023-03-31T20:32:30.613Z,95634.03
2023-03-31T20:34:57.391Z,95617.91
2023-03-31T20:37:23.857Z,95535.91
2023-03-31T20:39:50.463Z,95604.88
2023-03-31T20:42:17.240Z,95575.84
2023-03-31T20:44:43.920Z,95559.59
2023-03-31T20:47:10.543Z,95581.47
2023-03-31T20:49:37.422Z,95601.72
2023-03-31T20:52:04.166Z,95610.22
2023-03-31T20:54:30.647Z,95672.31
2023-03-31T20:56:57.286Z,95672.53
2023-03-31T20:59:23.843Z,95632.41
2023-03-31T21:01:50.437Z,95680.09
2023-03-31T21:04:17.318Z,95697.13
2023-03-31T21:06:46.727Z,95711.22
2023-03-31T21:09:15.141Z,95745.19
2023-03-31T21:11:41.727Z,95925.91
2023-03-31T21:14:12.902Z,95934.97
2023-03-31T21:16:39.820Z,95990.75
2023-03-31T21:19:06.371Z,96008.41
2023-03-31T21:21:32.976Z,96025.50
2023-03-31T21:23:59.536Z,96007.59
2023-03-31T21:26:26.413Z,95989.22
2023-03-31T21:28:53.448Z,96006.84
2023-03-31T21:31:21.653Z,95906.00
2023-03-31T21:33:48.363Z,95932.00
2023-03-31T21:36:20.521Z,95966.88
2023-03-31T21:38:47.189Z,95918.16
2023-03-31T21:41:15.459Z,95917.78
2023-03-31T21:43:43.103Z,95885.84
2023-03-31T21:46:16.360Z,95792.63
2023-03-31T21:48:43.288Z,95864.09
2023-03-31T21:51:10.326Z,95895.13
2023-03-31T21:53:37.084Z,95960.78
2023-03-31T21:56:03.689Z,95897.06
2023-03-31T21:58:30.559Z,95966.31
2023-03-31T22:01:04.497Z,95970.28
2023-03-31T22:03:33.169Z,95853.03
2023-03-31T22:06:01.624Z,95865.44
2023-03-31T22:08:29.286Z,95977.78
2023-03-31T22:10:57.153Z,96040.50
2023-03-31T22:13:24.391Z,96073.56
2023-03-31T22:15:51.031Z,96103.41
2023-03-31T22:18:18.320Z,96181.44
2023-03-31T22:20:46.151Z,96332.00
2023-03-31T22:23:13.173Z,96820.78
2023-03-31T22:25:39.775Z,96861.50
2023-03-31T22:28:07.490Z,96927.59
2023-03-31T22:30:34.391Z,96937.44
2023-03-31T22:33:01.347Z,97076.38
2023-03-31T22:35:28.704Z,97211.50
2023-03-31T22:37:55.340Z,96891.97
2023-03-31T22:40:21.949Z,97015.88
2023-03-31T22:42:48.528Z,96921.94
2023-03-31T22:45:15.540Z,97258.03
2023-03-31T22:47:42.276Z,96978.69
2023-03-31T22:50:10.185Z,97038.16
2023-03-31T22:52:37.174Z,97114.44
2023-03-31T22:55:04.294Z,97078.91
2023-03-31T22:57:31.182Z,97157.34
2023-03-31T22:59:57.954Z,97128.19
2023-03-31T23:02:24.443Z,97085.03
2023-03-31T23:04:51.241Z,97180.47
2023-03-31T23:07:18.243Z,97152.56
2023-03-31T23:09:44.846Z,97215.84
2023-03-31T23:12:11.367Z,97216.56
2023-03-31T23:14:37.942Z,97246.78
2023-03-31T23:17:04.552Z,97177.53
2023-03-31T23:19:31.487Z,97249.19
2023-03-31T23:21:58.121Z,97254.69
2023-03-31T23:24:24.694Z,97495.78
2023-03-31T23:26:51.394Z,97556.63
2023-03-31T23:29:17.967Z,98005.34
2023-03-31T23:31:44.440Z,97983.53
2023-03-31T23:34:12.507Z,98300.25
2023-03-31T23:36:39.620Z,98285.69
2023-03-31T23:39:06.127Z,98562.94
2023-03-31T23:41:33.029Z,98643.06
2023-03-31T23:43:59.687Z,98906.69
2023-03-31T23:46:26.444Z,98898.22
2023-03-31T23:48:53.691Z,98879.22
2023-03-31T23:51:20.268Z,98840.25
2023-03-31T23:53:47.270Z,99150.56
2023-03-31T23:56:14.651Z,99248.34
2023-03-31T23:58:41.513Z,99329.66
